Pettit, Oklahoma
Current Conditions -  °F | °C
As of 6:35 PM on Friday 21 Nov 2014 (Local Time) from KTQH Reporting Station
Overcast Overcast  
Wind Chill: 50°   Ceiling: 1000
Heat Index: 50°   Visibility: 10mi
Dew Point: 46°   Wind: 10mph
Humidity: 87%   Direction: 130°SE
Pressure: 30.12"   Gusts: NA
Location:  35.7526°N, 95.024°W
Report Text: KTQH 220035Z AUTO 13009KT 10SM OVC010 10/08 A3012 RMK AO2
Loading
Personal Weather Stations






























Interactive Weather Map New forecast layout! Learn more

10-Day Weather Forecast

Advertisements
Track Severe Weather on mobile